createdAt,value
2018-01-27T00:01:52.309Z,7.50
2018-01-27T00:04:24.150Z,7.60
2018-01-27T00:07:01.871Z,7.70
2018-01-27T00:09:35.414Z,7.80
2018-01-27T00:12:09.462Z,7.80
2018-01-27T00:14:42.793Z,7.80
2018-01-27T00:17:20.630Z,7.80
2018-01-27T00:19:51.940Z,7.70
2018-01-27T00:22:39.045Z,7.70
2018-01-27T00:25:15.822Z,7.70
2018-01-27T00:27:54.237Z,7.70
2018-01-27T00:30:25.958Z,7.70
2018-01-27T00:32:59.836Z,7.60
2018-01-27T00:35:31.228Z,7.60
2018-01-27T00:38:05.141Z,7.60
2018-01-27T00:40:38.234Z,7.50
2018-01-27T00:43:34.941Z,7.50
2018-01-27T00:46:43.065Z,7.40
2018-01-27T00:49:16.923Z,7.50
2018-01-27T00:51:50.571Z,7.50
2018-01-27T00:54:30.803Z,7.50
2018-01-27T00:57:30.186Z,7.50
2018-01-27T01:00:00.705Z,7.60
2018-01-27T01:02:32.315Z,7.40
2018-01-27T01:05:02.535Z,7.50
2018-01-27T01:07:34.871Z,7.50
2018-01-27T01:10:12.786Z,7.40
2018-01-27T01:12:46.616Z,7.40
2018-01-27T01:15:17.595Z,7.40
2018-01-27T01:20:50.467Z,7.30
2018-01-27T01:23:21.252Z,7.30
2018-01-27T01:26:00.402Z,7.40
2018-01-27T01:28:37.158Z,7.40
2018-01-27T01:31:13.251Z,7.40
2018-01-27T01:33:55.680Z,7.40
2018-01-27T01:36:47.651Z,7.40
2018-01-27T01:39:24.891Z,7.40
2018-01-27T01:41:56.604Z,7.30
2018-01-27T01:44:36.773Z,7.40
2018-01-27T01:47:16.018Z,7.50
2018-01-27T01:50:55.451Z,7.40
2018-01-27T01:53:31.004Z,7.50
2018-01-27T01:56:10.105Z,7.40
2018-01-27T01:58:40.034Z,7.30
2018-01-27T02:01:10.494Z,7.40
2018-01-27T02:03:41.789Z,7.40
2018-01-27T02:06:13.183Z,7.40
2018-01-27T02:08:42.886Z,7.30
2018-01-27T02:11:16.214Z,7.40
2018-01-27T02:13:49.045Z,7.40
2018-01-27T02:16:20.533Z,7.40
2018-01-27T02:18:53.716Z,7.40
2018-01-27T02:21:29.076Z,7.40
2018-01-27T02:24:01.737Z,7.50
2018-01-27T02:26:35.845Z,7.60
2018-01-27T02:29:08.805Z,7.70
2018-01-27T02:31:49.567Z,7.60
2018-01-27T02:34:24.333Z,7.60
2018-01-27T02:36:57.249Z,7.60
2018-01-27T02:39:30.915Z,7.50
2018-01-27T02:42:07.890Z,7.50
2018-01-27T02:44:51.516Z,7.50
2018-01-27T02:47:39.014Z,7.50
2018-01-27T02:50:19.279Z,7.50
2018-01-27T02:52:51.516Z,7.50
2018-01-27T02:55:23.214Z,7.40
2018-01-27T02:58:03.918Z,7.40
2018-01-27T03:00:45.392Z,7.40
2018-01-27T03:03:18.451Z,7.30
2018-01-27T03:05:50.748Z,7.30
2018-01-27T03:08:23.388Z,7.30
2018-01-27T03:10:54.227Z,7.30
2018-01-27T03:13:30.438Z,7.30
2018-01-27T03:16:00.444Z,7.40
2018-01-27T03:18:30.580Z,7.40
2018-01-27T03:21:01.083Z,7.40
2018-01-27T03:23:34.520Z,7.40
2018-01-27T03:26:07.222Z,7.40
2018-01-27T03:28:37.694Z,7.40
2018-01-27T03:31:27.062Z,7.30
2018-01-27T03:34:00.371Z,7.30
2018-01-27T03:36:31.080Z,7.10
2018-01-27T03:39:01.154Z,7.10
2018-01-27T03:41:35.521Z,7.20
2018-01-27T03:44:05.627Z,7.20
2018-01-27T03:46:43.975Z,7.30
2018-01-27T03:49:23.845Z,7.20
2018-01-27T03:52:07.703Z,7.30
2018-01-27T03:54:37.981Z,7.30
2018-01-27T03:57:09.951Z,7.30
2018-01-27T03:59:39.510Z,7.30
2018-01-27T04:02:09.070Z,7.30
2018-01-27T04:04:38.984Z,7.20
2018-01-27T04:07:10.347Z,7.20
2018-01-27T04:09:41.849Z,7.10
2018-01-27T04:12:11.718Z,7.10
2018-01-27T04:14:42.244Z,7.10
2018-01-27T04:17:12.341Z,7.00
2018-01-27T04:19:41.902Z,6.90
2018-01-27T04:22:12.310Z,6.90
2018-01-27T04:28:16.626Z,6.90
2018-01-27T04:30:51.870Z,6.90
2018-01-27T04:33:22.124Z,6.90
2018-01-27T04:35:52.374Z,6.90
2018-01-27T04:38:22.652Z,6.90
2018-01-27T04:40:52.094Z,6.90
2018-01-27T04:43:21.722Z,6.80
2018-01-27T04:45:51.829Z,6.90
2018-01-27T04:48:21.582Z,7.00
2018-01-27T04:50:51.380Z,7.00
2018-01-27T04:53:22.485Z,7.00
2018-01-27T04:55:52.290Z,6.90
2018-01-27T04:58:24.025Z,7.10
2018-01-27T05:00:56.273Z,7.00
2018-01-27T05:03:31.708Z,7.00
2018-01-27T05:06:01.271Z,7.00
2018-01-27T05:08:30.842Z,6.90
2018-01-27T05:11:00.993Z,6.90
2018-01-27T05:13:31.128Z,6.90
2018-01-27T05:16:01.452Z,7.00
2018-01-27T05:18:30.951Z,7.00
2018-01-27T05:21:00.445Z,7.00
2018-01-27T05:23:29.844Z,7.00
2018-01-27T05:26:00.042Z,6.90
2018-01-27T05:28:29.694Z,6.90
2018-01-27T05:30:59.126Z,6.90
2018-01-27T05:33:29.346Z,6.90
2018-01-27T05:35:59.909Z,6.80
2018-01-27T05:38:30.488Z,6.80
2018-01-27T05:40:59.824Z,6.80
2018-01-27T05:43:29.599Z,6.80
2018-01-27T05:45:59.404Z,6.80
2018-01-27T05:48:28.890Z,6.90
2018-01-27T05:50:58.684Z,6.80
2018-01-27T05:53:28.057Z,6.90
2018-01-27T05:55:58.714Z,6.90
2018-01-27T05:58:28.817Z,6.80
2018-01-27T06:00:58.456Z,6.90
2018-01-27T06:03:28.024Z,7.00
2018-01-27T06:05:57.456Z,6.90
2018-01-27T06:08:27.059Z,6.70
2018-01-27T06:10:58.880Z,6.60
2018-01-27T06:13:28.940Z,6.60
2018-01-27T06:15:58.548Z,6.60
2018-01-27T06:18:28.064Z,6.60
2018-01-27T06:20:57.709Z,6.50
2018-01-27T06:23:27.279Z,6.50
2018-01-27T06:25:57.424Z,6.50
2018-01-27T06:28:29.411Z,6.50
2018-01-27T06:31:01.058Z,6.50
2018-01-27T06:33:30.636Z,6.40
2018-01-27T06:36:00.555Z,6.40
2018-01-27T06:38:30.258Z,6.40
2018-01-27T06:40:59.751Z,6.40
2018-01-27T06:43:29.663Z,6.40
2018-01-27T06:45:59.430Z,6.40
2018-01-27T06:48:29.751Z,6.40
2018-01-27T06:50:59.206Z,6.40
2018-01-27T06:53:28.575Z,6.40
2018-01-27T06:55:58.211Z,6.40
2018-01-27T06:58:27.656Z,6.50
2018-01-27T07:00:58.529Z,6.70
2018-01-27T07:03:28.799Z,6.70
2018-01-27T07:05:58.543Z,6.70
2018-01-27T07:08:27.984Z,6.70
2018-01-27T07:10:57.859Z,6.60
2018-01-27T07:13:28.477Z,6.70
2018-01-27T07:15:58.009Z,6.70
2018-01-27T07:18:28.308Z,6.60
2018-01-27T07:20:58.353Z,6.60
2018-01-27T07:23:28.547Z,6.50
2018-01-27T07:25:58.011Z,6.50
2018-01-27T07:28:27.594Z,6.60
2018-01-27T07:30:57.866Z,6.70
2018-01-27T07:33:27.362Z,6.70
2018-01-27T07:35:57.037Z,6.60
2018-01-27T07:38:26.809Z,6.70
2018-01-27T07:40:56.569Z,6.70
2018-01-27T07:43:26.207Z,6.70
2018-01-27T07:45:56.393Z,6.70
2018-01-27T07:48:25.938Z,6.70
2018-01-27T07:50:56.600Z,6.80
2018-01-27T07:53:30.207Z,6.90
2018-01-27T07:56:00.506Z,7.00
2018-01-27T07:58:30.510Z,6.90
2018-01-27T08:01:02.920Z,7.00
2018-01-27T08:03:39.175Z,6.80
2018-01-27T08:06:09.021Z,6.80
2018-01-27T08:08:38.708Z,6.80
2018-01-27T08:11:09.477Z,6.70
2018-01-27T08:13:42.231Z,6.70
2018-01-27T08:16:13.264Z,6.60
2018-01-27T08:18:42.926Z,6.60
2018-01-27T08:21:14.499Z,6.60
2018-01-27T08:23:44.145Z,6.50
2018-01-27T08:26:14.634Z,6.80
2018-01-27T08:28:44.177Z,6.80
2018-01-27T08:31:14.693Z,7.00
2018-01-27T08:33:44.726Z,7.10
2018-01-27T08:36:17.466Z,7.10
2018-01-27T08:38:47.120Z,7.10
2018-01-27T08:41:18.623Z,7.40
2018-01-27T08:43:48.195Z,7.30
2018-01-27T08:46:20.602Z,7.50
2018-01-27T08:48:50.382Z,7.60
2018-01-27T08:51:20.550Z,7.70
2018-01-27T08:53:51.680Z,7.70
2018-01-27T08:57:24.686Z,7.70
2018-01-27T08:59:54.827Z,7.70
2018-01-27T09:02:25.471Z,7.50
2018-01-27T09:04:56.031Z,7.40
2018-01-27T09:07:25.742Z,7.40
2018-01-27T09:09:55.320Z,7.40
2018-01-27T09:12:25.100Z,7.50
2018-01-27T09:14:54.777Z,7.40
2018-01-27T09:17:24.467Z,7.50
2018-01-27T09:19:55.158Z,7.60
2018-01-27T09:22:24.703Z,7.60
2018-01-27T09:24:54.173Z,7.60
2018-01-27T09:27:24.673Z,7.70
2018-01-27T09:29:54.928Z,7.70
2018-01-27T09:32:24.408Z,7.80
2018-01-27T09:34:55.124Z,7.90
2018-01-27T09:37:25.011Z,7.90
2018-01-27T09:39:55.125Z,7.60
2018-01-27T09:42:29.708Z,7.50
2018-01-27T09:44:59.970Z,7.50
2018-01-27T09:47:30.225Z,7.40
2018-01-27T09:49:59.971Z,7.40
2018-01-27T09:52:29.546Z,7.40
2018-01-27T09:54:59.325Z,7.50
2018-01-27T09:57:29.813Z,7.60
2018-01-27T10:00:00.275Z,7.60
2018-01-27T10:02:31.164Z,7.70
2018-01-27T10:05:00.662Z,7.90
2018-01-27T10:07:30.286Z,8.00
2018-01-27T10:10:00.174Z,8.00
2018-01-27T10:12:30.113Z,8.10
2018-01-27T10:15:00.503Z,8.20
2018-01-27T10:17:30.127Z,8.30
2018-01-27T10:20:00.207Z,8.30
2018-01-27T10:22:34.876Z,8.50
2018-01-27T10:25:04.574Z,8.50
2018-01-27T10:27:34.920Z,8.60
2018-01-27T10:30:05.576Z,8.60
2018-01-27T10:32:37.450Z,8.60
2018-01-27T10:35:08.770Z,8.70
2018-01-27T10:37:39.805Z,8.90
2018-01-27T10:40:10.397Z,8.90
2018-01-27T10:43:12.142Z,9.00
2018-01-27T10:45:42.477Z,9.10
2018-01-27T10:48:12.815Z,9.00
2018-01-27T10:50:54.282Z,9.10
2018-01-27T10:53:25.910Z,9.30
2018-01-27T10:55:56.394Z,9.30
2018-01-27T10:58:26.968Z,9.40
2018-01-27T11:00:57.964Z,9.60
2018-01-27T11:03:29.052Z,9.60
2018-01-27T11:05:58.959Z,9.80
2018-01-27T11:08:28.771Z,9.60
2018-01-27T11:10:58.754Z,9.70
2018-01-27T11:13:29.391Z,9.70
2018-01-27T11:16:00.545Z,9.60
2018-01-27T11:19:39.667Z,9.40
2018-01-27T11:22:21.272Z,9.40
2018-01-27T11:25:06.053Z,10.30
2018-01-27T11:27:39.410Z,10.30
2018-01-27T11:30:09.262Z,10.20
2018-01-27T11:32:39.255Z,10.00
2018-01-27T11:35:30.920Z,9.80
2018-01-27T11:38:07.015Z,9.80
2018-01-27T11:40:40.173Z,9.60
2018-01-27T11:43:09.869Z,9.50
2018-01-27T11:45:41.299Z,9.40
2018-01-27T11:48:11.653Z,9.40
2018-01-27T11:50:44.890Z,9.70
2018-01-27T11:53:16.339Z,9.70
2018-01-27T11:55:51.076Z,10.00
2018-01-27T11:58:41.658Z,10.30
2018-01-27T12:01:17.529Z,10.10
2018-01-27T12:03:58.195Z,10.10
2018-01-27T12:06:29.159Z,10.10
2018-01-27T12:08:59.868Z,10.20
2018-01-27T12:11:30.540Z,10.30
2018-01-27T12:14:08.644Z,10.20
2018-01-27T12:16:38.831Z,10.00
2018-01-27T12:19:09.972Z,9.90
2018-01-27T12:21:40.234Z,9.90
2018-01-27T12:24:10.445Z,9.90
2018-01-27T12:26:45.942Z,9.90
2018-01-27T12:29:21.938Z,9.90
2018-01-27T12:31:57.813Z,9.90
2018-01-27T12:34:29.169Z,9.90
2018-01-27T12:36:59.579Z,9.90
2018-01-27T12:39:29.918Z,9.90
2018-01-27T12:42:01.029Z,9.80
2018-01-27T12:44:30.725Z,9.90
2018-01-27T12:47:02.992Z,9.80
2018-01-27T12:49:36.209Z,9.90
2018-01-27T12:52:07.887Z,9.80
2018-01-27T12:54:48.367Z,9.90
2018-01-27T12:57:19.656Z,10.00
2018-01-27T12:59:49.615Z,10.10
2018-01-27T13:02:22.054Z,10.30
2018-01-27T13:04:52.802Z,10.30
2018-01-27T13:07:24.678Z,10.50
2018-01-27T13:09:54.656Z,10.60
2018-01-27T13:12:26.504Z,10.30
2018-01-27T13:14:58.474Z,10.30
2018-01-27T13:17:32.597Z,10.50
2018-01-27T13:20:03.460Z,11.00
2018-01-27T13:22:36.928Z,11.00
2018-01-27T13:25:23.939Z,12.20
2018-01-27T13:28:00.910Z,13.50
2018-01-27T13:30:31.196Z,14.50
2018-01-27T13:33:01.695Z,15.20
2018-01-27T13:35:41.641Z,15.30
2018-01-27T13:38:13.558Z,15.60
2018-01-27T13:40:45.697Z,15.30
2018-01-27T13:43:18.215Z,15.30
2018-01-27T13:45:52.192Z,15.50
2018-01-27T13:48:23.076Z,15.40
2018-01-27T13:50:54.432Z,15.30
2018-01-27T13:53:27.685Z,15.50
2018-01-27T13:56:00.436Z,15.90
2018-01-27T13:58:30.878Z,16.20
2018-01-27T14:01:09.734Z,15.90
2018-01-27T14:03:45.011Z,15.50
2018-01-27T14:06:14.672Z,15.20
2018-01-27T14:08:45.689Z,15.10
2018-01-27T14:11:15.926Z,15.50
2018-01-27T14:13:54.248Z,15.30
2018-01-27T14:16:30.140Z,15.40
2018-01-27T14:19:00.299Z,15.60
2018-01-27T14:21:30.482Z,15.70
2018-01-27T14:24:00.360Z,15.40
2018-01-27T14:26:29.936Z,15.00
2018-01-27T14:29:01.344Z,14.80
2018-01-27T14:31:31.025Z,14.30
2018-01-27T14:34:00.794Z,13.60
2018-01-27T14:36:39.347Z,13.70
2018-01-27T14:39:09.222Z,13.70
2018-01-27T14:41:47.564Z,13.00
2018-01-27T14:44:21.848Z,12.20
2018-01-27T14:46:52.310Z,11.60
2018-01-27T14:49:23.568Z,11.10
2018-01-27T14:52:01.062Z,10.70
2018-01-27T14:54:31.455Z,10.40
2018-01-27T14:57:01.608Z,10.10
2018-01-27T14:59:31.725Z,9.90
2018-01-27T15:02:02.504Z,9.80
2018-01-27T15:04:33.485Z,9.60
2018-01-27T15:07:03.929Z,9.50
2018-01-27T15:09:33.854Z,9.40
2018-01-27T15:12:05.819Z,9.20
2018-01-27T15:14:36.908Z,9.10
2018-01-27T15:17:07.826Z,9.10
2018-01-27T15:19:37.727Z,9.10
2018-01-27T15:22:16.270Z,9.00
2018-01-27T15:24:50.640Z,8.80
2018-01-27T15:27:30.236Z,8.80
2018-01-27T15:30:02.326Z,8.80
2018-01-27T15:32:33.406Z,8.90
2018-01-27T15:35:04.437Z,8.90
2018-01-27T15:37:35.610Z,8.90
2018-01-27T15:40:08.693Z,8.80
2018-01-27T15:42:38.907Z,8.90
2018-01-27T15:45:11.957Z,8.70
2018-01-27T15:47:46.837Z,8.70
2018-01-27T15:50:20.183Z,8.70
2018-01-27T15:52:50.880Z,8.60
2018-01-27T15:55:21.913Z,8.60
2018-01-27T15:57:52.643Z,8.50
2018-01-27T16:00:26.689Z,8.50
2018-01-27T16:02:58.906Z,8.40
2018-01-27T16:05:28.846Z,8.30
2018-01-27T16:08:02.193Z,8.20
2018-01-27T16:10:34.338Z,8.20
2018-01-27T16:13:04.861Z,8.10
2018-01-27T16:15:34.667Z,8.10
2018-01-27T16:18:10.307Z,8.10
2018-01-27T16:20:40.530Z,8.00
2018-01-27T16:23:11.263Z,8.00
2018-01-27T16:25:48.764Z,8.00
2018-01-27T16:28:26.909Z,8.00
2018-01-27T16:31:09.344Z,8.10
2018-01-27T16:33:50.869Z,8.10
2018-01-27T16:36:21.300Z,8.10
2018-01-27T16:38:52.230Z,8.00
2018-01-27T16:41:22.846Z,7.90
2018-01-27T16:43:53.593Z,7.90
2018-01-27T16:46:24.331Z,7.90
2018-01-27T16:48:54.821Z,7.90
2018-01-27T16:51:31.220Z,7.90
2018-01-27T16:54:01.175Z,7.80
2018-01-27T16:56:34.157Z,7.90
2018-01-27T17:07:36.250Z,7.90
2018-01-27T17:10:06.439Z,7.90
2018-01-27T17:12:36.751Z,8.00
2018-01-27T17:15:07.684Z,8.00
2018-01-27T17:17:37.963Z,8.00
2018-01-27T17:20:10.505Z,8.00
2018-01-27T17:22:41.495Z,8.00
2018-01-27T17:25:12.825Z,7.90
2018-01-27T17:27:43.681Z,8.00
2018-01-27T17:30:14.790Z,7.90
2018-01-27T17:32:45.611Z,7.80
2018-01-27T17:35:23.713Z,7.80
2018-01-27T17:37:55.232Z,7.80
2018-01-27T17:40:30.955Z,7.80
2018-01-27T17:43:00.614Z,7.80
2018-01-27T17:45:30.413Z,7.80
2018-01-27T17:48:01.416Z,7.70
2018-01-27T17:50:31.460Z,7.70
2018-01-27T17:53:03.878Z,7.70
2018-01-27T17:55:35.553Z,7.70
2018-01-27T17:58:07.237Z,7.70
2018-01-27T18:00:46.110Z,7.70
2018-01-27T18:03:26.178Z,7.80
2018-01-27T18:05:57.374Z,7.70
2018-01-27T18:08:27.131Z,7.70
2018-01-27T18:10:57.712Z,7.60
2018-01-27T18:13:29.131Z,7.60
2018-01-27T18:16:01.758Z,7.60
2018-01-27T18:18:34.182Z,7.50
2018-01-27T18:21:05.894Z,7.50
2018-01-27T18:23:36.545Z,7.50
2018-01-27T18:26:06.989Z,7.50
2018-01-27T18:28:37.967Z,7.60
2018-01-27T18:31:08.049Z,7.60
2018-01-27T18:33:38.979Z,7.40
2018-01-27T18:36:08.949Z,7.40
2018-01-27T18:38:39.618Z,7.50
2018-01-27T18:41:09.870Z,7.40
2018-01-27T18:43:40.621Z,7.40
2018-01-27T18:46:11.540Z,7.40
2018-01-27T18:48:41.681Z,7.40
2018-01-27T18:51:12.567Z,7.30
2018-01-27T18:53:43.891Z,7.30
2018-01-27T18:56:14.077Z,7.30
2018-01-27T18:58:50.326Z,7.30
2018-01-27T19:01:19.982Z,7.20
2018-01-27T19:03:54.570Z,7.20
2018-01-27T19:06:26.454Z,7.30
2018-01-27T19:09:07.769Z,7.30
2018-01-27T19:11:39.277Z,7.30
2018-01-27T19:14:15.710Z,7.30
2018-01-27T19:16:46.029Z,7.30
2018-01-27T19:19:16.818Z,7.30
2018-01-27T19:21:49.861Z,7.40
2018-01-27T19:24:22.345Z,7.40
2018-01-27T19:26:57.993Z,7.40
2018-01-27T19:29:32.779Z,7.40
2018-01-27T19:32:15.816Z,7.40
2018-01-27T19:34:58.522Z,7.30
2018-01-27T19:37:29.439Z,7.30
2018-01-27T19:40:00.473Z,7.20
2018-01-27T19:42:32.386Z,7.30
2018-01-27T19:45:14.385Z,7.30
2018-01-27T19:47:51.321Z,7.40
2018-01-27T19:50:22.128Z,7.30
2018-01-27T19:52:52.912Z,7.30
2018-01-27T19:55:24.379Z,7.30
2018-01-27T19:57:56.134Z,7.30
2018-01-27T20:00:27.353Z,7.30
2018-01-27T20:03:01.449Z,7.30
2018-01-27T20:05:34.687Z,7.30
2018-01-27T20:08:08.569Z,7.20
2018-01-27T20:10:39.615Z,7.30
2018-01-27T20:13:12.084Z,7.40
2018-01-27T20:15:43.414Z,7.40
2018-01-27T20:18:25.420Z,7.40
2018-01-27T20:21:26.159Z,7.30
2018-01-27T20:24:13.144Z,7.20
2018-01-27T20:26:54.277Z,7.30
2018-01-27T20:29:28.233Z,7.20
2018-01-27T20:32:15.936Z,7.30
2018-01-27T20:35:01.231Z,7.40
2018-01-27T20:37:35.742Z,7.40
2018-01-27T20:40:14.229Z,7.40
2018-01-27T20:42:46.077Z,7.40
2018-01-27T20:45:32.718Z,7.50
2018-01-27T20:48:11.420Z,7.50
2018-01-27T20:50:43.237Z,7.50
2018-01-27T20:53:16.043Z,7.40
2018-01-27T20:55:50.384Z,7.40
2018-01-27T20:58:23.395Z,7.50
2018-01-27T21:00:56.368Z,7.40
2018-01-27T21:03:27.109Z,7.60
2018-01-27T21:05:57.932Z,7.60
2018-01-27T21:08:28.145Z,7.60
2018-01-27T21:10:58.764Z,7.60
2018-01-27T21:13:29.180Z,7.70
2018-01-27T21:16:06.932Z,7.80
2018-01-27T21:18:37.974Z,7.90
2018-01-27T21:21:32.161Z,7.90
2018-01-27T21:24:16.701Z,7.90
2018-01-27T21:26:50.753Z,7.90
2018-01-27T21:29:21.884Z,8.00
2018-01-27T21:31:58.805Z,7.90
2018-01-27T21:34:29.153Z,7.90
2018-01-27T21:36:59.648Z,7.80
2018-01-27T21:39:29.318Z,7.80
2018-01-27T21:41:59.289Z,7.70
2018-01-27T21:44:29.964Z,7.70
2018-01-27T21:47:00.471Z,7.70
2018-01-27T21:49:35.049Z,7.70
2018-01-27T21:52:06.131Z,7.80
2018-01-27T21:54:38.394Z,7.80
2018-01-27T21:57:08.703Z,7.90
2018-01-27T21:59:39.519Z,7.90
2018-01-27T22:02:15.829Z,7.90
2018-01-27T22:04:49.881Z,8.00
2018-01-27T22:07:31.859Z,8.00
2018-01-27T22:10:13.960Z,8.10
2018-01-27T22:12:50.089Z,8.10
2018-01-27T22:15:24.043Z,8.20
2018-01-27T22:17:55.737Z,8.20
2018-01-27T22:20:27.145Z,8.20
2018-01-27T22:23:02.309Z,8.20
2018-01-27T22:25:35.780Z,8.30
2018-01-27T22:28:21.981Z,8.30
2018-01-27T22:31:09.838Z,8.30
2018-01-27T22:33:44.953Z,8.40
2018-01-27T22:36:16.499Z,8.30
2018-01-27T22:38:55.587Z,8.40
2018-01-27T22:41:26.709Z,8.50
2018-01-27T22:44:35.006Z,8.40
2018-01-27T22:47:13.337Z,8.30
2018-01-27T22:50:01.958Z,8.50
2018-01-27T22:52:44.819Z,8.50
2018-01-27T22:55:16.241Z,8.60
2018-01-27T22:57:46.362Z,8.80
2018-01-27T23:00:26.501Z,8.70
2018-01-27T23:02:56.732Z,8.50
2018-01-27T23:05:34.783Z,8.50
2018-01-27T23:08:16.389Z,8.50
2018-01-27T23:10:58.742Z,8.30
2018-01-27T23:13:29.329Z,8.30
2018-01-27T23:16:00.727Z,8.00
2018-01-27T23:18:30.769Z,8.00
2018-01-27T23:21:00.583Z,7.90
2018-01-27T23:23:30.191Z,7.90
2018-01-27T23:26:01.725Z,7.90
2018-01-27T23:28:36.238Z,7.70
2018-01-27T23:31:06.640Z,7.70
2018-01-27T23:33:36.558Z,7.80
2018-01-27T23:36:07.417Z,7.70
2018-01-27T23:38:38.043Z,7.80
2018-01-27T23:41:11.440Z,7.80
2018-01-27T23:43:44.760Z,7.80
2018-01-27T23:46:22.650Z,7.80
2018-01-27T23:48:57.829Z,8.00
2018-01-27T23:51:28.607Z,8.00
2018-01-27T23:53:59.759Z,7.90
2018-01-27T23:56:30.567Z,7.70
2018-01-27T23:59:08.127Z,7.60
